createdAt,value
2023-03-29T00:00:01.138Z,962.67
2023-03-29T00:01:01.380Z,962.65
2023-03-29T00:02:01.135Z,962.78
2023-03-29T00:03:01.139Z,962.96
2023-03-29T00:04:02.662Z,962.89
2023-03-29T00:05:01.094Z,962.87
2023-03-29T00:06:01.083Z,962.81
2023-03-29T00:07:01.050Z,962.85
2023-03-29T00:08:01.034Z,962.96
2023-03-29T00:09:01.048Z,962.95
2023-03-29T00:10:01.045Z,963.10
2023-03-29T00:11:01.233Z,962.94
2023-03-29T00:12:00.999Z,963.01
2023-03-29T00:13:01.008Z,963.16
2023-03-29T00:14:21.967Z,963.17
2023-03-29T00:15:00.963Z,963.23
2023-03-29T00:16:01.005Z,963.15
2023-03-29T00:17:00.956Z,963.20
2023-03-29T00:18:01.004Z,963.27
2023-03-29T00:19:00.952Z,963.27
2023-03-29T00:20:00.931Z,963.33
2023-03-29T00:21:01.120Z,963.35
2023-03-29T00:22:00.884Z,963.36
2023-03-29T00:23:00.869Z,963.40
2023-03-29T00:24:00.881Z,963.34
2023-03-29T00:25:00.847Z,963.39
2023-03-29T00:26:00.851Z,963.38
2023-03-29T00:27:00.830Z,963.37
2023-03-29T00:28:00.813Z,963.39
2023-03-29T00:29:01.907Z,963.36
2023-03-29T00:30:00.798Z,963.39
2023-03-29T00:31:01.057Z,963.35
2023-03-29T00:32:00.775Z,963.37
2023-03-29T00:33:00.802Z,963.38
2023-03-29T00:34:00.766Z,963.42
2023-03-29T00:35:00.746Z,963.42
2023-03-29T00:36:00.751Z,963.44
2023-03-29T00:37:00.712Z,963.42
2023-03-29T00:38:00.709Z,963.50
2023-03-29T00:39:00.686Z,963.46
2023-03-29T00:40:00.716Z,963.43
2023-03-29T00:41:01.986Z,963.38
2023-03-29T00:42:00.670Z,963.42
2023-03-29T00:43:00.644Z,963.33
2023-03-29T00:44:00.686Z,963.35
2023-03-29T00:45:00.641Z,963.31
2023-03-29T00:46:00.655Z,963.29
2023-03-29T00:47:00.617Z,963.34
2023-03-29T00:48:00.718Z,963.33
2023-03-29T00:49:00.581Z,963.35
2023-03-29T00:50:00.581Z,963.37
2023-03-29T00:51:00.756Z,963.33
2023-03-29T00:52:00.555Z,963.29
2023-03-29T00:53:00.537Z,963.34
2023-03-29T00:54:00.524Z,963.32
2023-03-29T00:55:00.568Z,963.38
2023-03-29T00:56:00.539Z,963.39
2023-03-29T00:57:00.550Z,963.29
2023-03-29T00:58:00.511Z,963.23
2023-03-29T00:59:00.475Z,963.23
2023-03-29T01:00:01.028Z,963.18
2023-03-29T01:01:00.683Z,963.29
2023-03-29T01:02:00.476Z,963.17
2023-03-29T01:03:00.484Z,963.16
2023-03-29T01:04:00.501Z,963.21
2023-03-29T01:05:00.468Z,963.28
2023-03-29T01:06:00.451Z,963.27
2023-03-29T01:07:00.576Z,963.31
2023-03-29T01:08:00.436Z,963.31
2023-03-29T01:09:00.401Z,963.23
2023-03-29T01:10:00.438Z,963.25
2023-03-29T01:11:00.641Z,963.22
2023-03-29T01:12:00.430Z,963.14
2023-03-29T01:13:00.359Z,963.12
2023-03-29T01:14:00.429Z,963.13
2023-03-29T01:15:00.454Z,963.10
2023-03-29T01:16:00.457Z,963.08
2023-03-29T01:17:00.302Z,963.06
2023-03-29T01:18:00.347Z,963.08
2023-03-29T01:19:00.250Z,963.05
2023-03-29T01:20:00.255Z,963.03
2023-03-29T01:21:00.497Z,962.96
2023-03-29T01:22:00.217Z,962.97
2023-03-29T01:23:00.238Z,962.99
2023-03-29T01:24:00.237Z,962.98
2023-03-29T01:25:00.197Z,962.97
2023-03-29T01:26:00.189Z,962.90
2023-03-29T01:27:00.168Z,962.92
2023-03-29T01:28:00.147Z,962.83
2023-03-29T01:29:00.141Z,962.81
2023-03-29T01:30:00.254Z,962.76
2023-03-29T01:31:00.459Z,962.72
2023-03-29T01:32:00.214Z,962.72
2023-03-29T01:33:00.114Z,962.73
2023-03-29T01:34:00.133Z,962.72
2023-03-29T01:35:00.093Z,962.71
2023-03-29T01:36:00.121Z,962.72
2023-03-29T01:37:00.072Z,962.69
2023-03-29T01:38:00.073Z,962.64
2023-03-29T01:39:00.082Z,962.65
2023-03-29T01:40:00.038Z,962.62
2023-03-29T01:41:00.135Z,962.61
2023-03-29T01:42:00.013Z,962.63
2023-03-29T01:42:59.999Z,962.65
2023-03-29T01:44:00.005Z,962.61
2023-03-29T01:44:59.967Z,962.53
2023-03-29T01:45:59.986Z,962.46
2023-03-29T01:46:59.945Z,962.45
2023-03-29T01:47:59.972Z,962.42
2023-03-29T01:48:59.920Z,962.33
2023-03-29T01:49:59.921Z,962.32
2023-03-29T01:51:00.062Z,962.25
2023-03-29T01:51:59.914Z,962.13
2023-03-29T01:52:59.881Z,962.14
2023-03-29T01:53:59.869Z,962.17
2023-03-29T01:54:59.879Z,962.20
2023-03-29T01:55:59.839Z,962.17
2023-03-29T01:56:59.852Z,962.14
2023-03-29T01:57:59.831Z,962.04
2023-03-29T01:58:59.802Z,962.09
2023-03-29T01:59:59.798Z,962.14
2023-03-29T02:01:00.135Z,962.10
2023-03-29T02:02:00.003Z,962.14
2023-03-29T02:02:59.862Z,962.16
2023-03-29T02:03:59.759Z,962.16
2023-03-29T02:04:59.736Z,962.18
2023-03-29T02:05:59.731Z,962.06
2023-03-29T02:06:59.744Z,962.10
2023-03-29T02:07:59.709Z,962.07
2023-03-29T02:08:59.694Z,962.03
2023-03-29T02:09:59.691Z,962.02
2023-03-29T02:10:59.813Z,961.94
2023-03-29T02:11:59.682Z,961.98
2023-03-29T02:12:59.655Z,961.97
2023-03-29T02:14:00.353Z,961.97
2023-03-29T02:14:59.628Z,961.93
2023-03-29T02:15:59.668Z,961.94
2023-03-29T02:16:59.602Z,962.00
2023-03-29T02:17:59.669Z,961.94
2023-03-29T02:18:59.577Z,961.88
2023-03-29T02:19:59.580Z,961.97
2023-03-29T02:20:59.739Z,961.94
2023-03-29T02:21:59.559Z,961.97
2023-03-29T02:22:59.558Z,961.95
2023-03-29T02:23:59.548Z,961.96
2023-03-29T02:24:59.603Z,961.96
2023-03-29T02:25:59.509Z,961.92
2023-03-29T02:26:59.540Z,961.95
2023-03-29T02:27:59.496Z,961.93
2023-03-29T02:28:59.477Z,961.88
2023-03-29T02:29:59.538Z,961.91
2023-03-29T02:30:59.587Z,961.81
2023-03-29T02:31:59.456Z,961.77
2023-03-29T02:32:59.648Z,961.80
2023-03-29T02:33:59.411Z,961.73
2023-03-29T02:34:59.399Z,961.75
2023-03-29T02:35:59.489Z,961.75
2023-03-29T02:36:59.381Z,961.67
2023-03-29T02:37:59.382Z,961.68
2023-03-29T02:38:59.369Z,961.66
2023-03-29T02:39:59.351Z,961.69
2023-03-29T02:40:59.536Z,961.66
2023-03-29T02:41:59.330Z,961.65
2023-03-29T02:42:59.338Z,961.64
2023-03-29T02:43:59.329Z,961.65
2023-03-29T02:44:59.292Z,961.64
2023-03-29T02:45:59.295Z,961.58
2023-03-29T02:46:59.309Z,961.53
2023-03-29T02:47:59.340Z,961.53
2023-03-29T02:48:59.249Z,961.53
2023-03-29T02:49:59.240Z,961.51
2023-03-29T02:50:59.395Z,961.48
2023-03-29T02:51:59.246Z,961.48
2023-03-29T02:52:59.253Z,961.43
2023-03-29T02:53:59.260Z,961.46
2023-03-29T02:54:59.182Z,961.45
2023-03-29T02:55:59.183Z,961.32
2023-03-29T02:56:59.225Z,961.40
2023-03-29T02:57:59.334Z,961.43
2023-03-29T02:58:59.139Z,961.42
2023-03-29T02:59:59.142Z,961.40
2023-03-29T03:00:59.212Z,961.41
2023-03-29T03:01:59.133Z,961.42
2023-03-29T03:03:01.903Z,961.41
2023-03-29T03:03:59.168Z,961.41
2023-03-29T03:04:59.069Z,961.35
2023-03-29T03:05:59.064Z,961.35
2023-03-29T03:06:59.068Z,961.36
2023-03-29T03:07:59.047Z,961.37
2023-03-29T03:08:59.053Z,961.29
2023-03-29T03:09:59.105Z,961.29
2023-03-29T03:10:59.061Z,961.34
2023-03-29T03:11:59.002Z,961.34
2023-03-29T03:12:58.983Z,961.28
2023-03-29T03:13:58.991Z,961.30
2023-03-29T03:14:58.966Z,961.27
2023-03-29T03:15:58.995Z,961.24
2023-03-29T03:16:58.964Z,961.22
2023-03-29T03:17:58.964Z,961.21
2023-03-29T03:18:58.955Z,961.18
2023-03-29T03:19:58.909Z,961.15
2023-03-29T03:20:59.046Z,961.07
2023-03-29T03:21:58.906Z,961.13
2023-03-29T03:22:58.905Z,961.12
2023-03-29T03:23:58.920Z,961.12
2023-03-29T03:24:58.846Z,961.10
2023-03-29T03:25:58.835Z,961.07
2023-03-29T03:26:58.823Z,961.08
2023-03-29T03:27:58.822Z,961.08
2023-03-29T03:28:58.829Z,961.08
2023-03-29T03:29:58.790Z,961.08
2023-03-29T03:30:58.849Z,961.01
2023-03-29T03:31:58.813Z,961.02
2023-03-29T03:32:58.790Z,960.98
2023-03-29T03:33:58.789Z,960.95
2023-03-29T03:34:58.742Z,960.93
2023-03-29T03:35:58.748Z,960.88
2023-03-29T03:36:58.719Z,960.96
2023-03-29T03:37:58.749Z,960.96
2023-03-29T03:38:58.702Z,960.97
2023-03-29T03:39:58.688Z,960.91
2023-03-29T03:40:58.693Z,960.96
2023-03-29T03:41:58.657Z,960.97
2023-03-29T03:42:58.677Z,960.87
2023-03-29T03:43:58.656Z,960.85
2023-03-29T03:44:58.719Z,960.81
2023-03-29T03:45:58.723Z,960.80
2023-03-29T03:46:58.631Z,960.88
2023-03-29T03:47:58.667Z,960.81
2023-03-29T03:48:58.589Z,960.81
2023-03-29T03:49:58.734Z,960.80
2023-03-29T03:50:58.596Z,960.75
2023-03-29T03:51:58.589Z,960.76
2023-03-29T03:52:58.577Z,960.73
2023-03-29T03:53:58.541Z,960.70
2023-03-29T03:54:58.518Z,960.70
2023-03-29T03:55:58.730Z,960.68
2023-03-29T03:56:58.521Z,960.67
2023-03-29T03:57:58.486Z,960.72
2023-03-29T03:58:58.501Z,960.68
2023-03-29T03:59:58.460Z,960.70
2023-03-29T04:00:58.492Z,960.64
2023-03-29T04:01:58.533Z,960.62
2023-03-29T04:02:58.461Z,960.62
2023-03-29T04:03:58.497Z,960.66
2023-03-29T04:04:58.415Z,960.58
2023-03-29T04:05:58.413Z,960.54
2023-03-29T04:06:58.381Z,960.53
2023-03-29T04:07:58.372Z,960.51
2023-03-29T04:08:58.384Z,960.38
2023-03-29T04:09:58.355Z,960.39
2023-03-29T04:10:58.364Z,960.40
2023-03-29T04:11:58.393Z,960.42
2023-03-29T04:12:58.313Z,960.44
2023-03-29T04:13:58.324Z,960.45
2023-03-29T04:14:58.301Z,960.43
2023-03-29T04:16:00.942Z,960.47
2023-03-29T04:16:58.316Z,960.56
2023-03-29T04:17:58.368Z,960.57
2023-03-29T04:18:58.327Z,960.51
2023-03-29T04:19:58.249Z,960.52
2023-03-29T04:20:58.251Z,960.51
2023-03-29T04:21:58.224Z,960.46
2023-03-29T04:22:58.224Z,960.50
2023-03-29T04:23:58.193Z,960.48
2023-03-29T04:24:58.197Z,960.51
2023-03-29T04:25:58.166Z,960.47
2023-03-29T04:26:58.155Z,960.43
2023-03-29T04:27:58.153Z,960.42
2023-03-29T04:28:58.134Z,960.43
2023-03-29T04:29:58.144Z,960.44
2023-03-29T04:30:58.174Z,960.40
2023-03-29T04:31:58.127Z,960.41
2023-03-29T04:32:58.166Z,960.38
2023-03-29T04:34:00.200Z,960.29
2023-03-29T04:34:58.087Z,960.27
2023-03-29T04:35:58.116Z,960.35
2023-03-29T04:36:58.054Z,960.33
2023-03-29T04:37:58.052Z,960.32
2023-03-29T04:38:58.030Z,960.29
2023-03-29T04:39:58.034Z,960.32
2023-03-29T04:40:58.015Z,960.34
2023-03-29T04:41:58.003Z,960.37
2023-03-29T04:42:57.996Z,960.23
2023-03-29T04:43:57.991Z,960.20
2023-03-29T04:44:58.030Z,960.26
2023-03-29T04:45:57.986Z,960.19
2023-03-29T04:46:57.951Z,960.25
2023-03-29T04:47:58.009Z,960.22
2023-03-29T04:48:57.923Z,960.18
2023-03-29T04:49:57.942Z,960.29
2023-03-29T04:50:57.904Z,960.24
2023-03-29T04:51:57.896Z,960.24
2023-03-29T04:52:57.877Z,960.24
2023-03-29T04:53:57.872Z,960.28
2023-03-29T04:54:57.902Z,960.28
2023-03-29T04:55:57.868Z,960.20
2023-03-29T04:56:57.932Z,960.23
2023-03-29T04:57:57.855Z,960.21
2023-03-29T04:58:57.818Z,960.26
2023-03-29T04:59:57.806Z,960.23
2023-03-29T05:00:57.786Z,960.15
2023-03-29T05:01:57.843Z,960.15
2023-03-29T05:02:57.939Z,960.14
2023-03-29T05:03:57.840Z,960.08
2023-03-29T05:04:57.767Z,960.11
2023-03-29T05:05:57.731Z,960.10
2023-03-29T05:06:57.744Z,960.05
2023-03-29T05:07:57.729Z,960.05
2023-03-29T05:08:57.703Z,960.04
2023-03-29T05:09:57.704Z,960.05
2023-03-29T05:10:57.690Z,960.05
2023-03-29T05:11:57.657Z,960.10
2023-03-29T05:12:57.678Z,960.16
2023-03-29T05:13:57.640Z,960.15
2023-03-29T05:14:57.656Z,960.18
2023-03-29T05:15:57.662Z,960.15
2023-03-29T05:16:57.643Z,960.18
2023-03-29T05:17:57.777Z,960.15
2023-03-29T05:18:57.609Z,960.19
2023-03-29T05:19:57.602Z,960.22
2023-03-29T05:20:57.566Z,960.20
2023-03-29T05:21:57.594Z,960.16
2023-03-29T05:22:57.545Z,960.08
2023-03-29T05:23:57.537Z,960.17
2023-03-29T05:24:57.631Z,960.16
2023-03-29T05:25:57.514Z,960.20
2023-03-29T05:26:57.498Z,960.12
2023-03-29T05:27:57.485Z,960.11
2023-03-29T05:28:57.515Z,960.11
2023-03-29T05:29:57.469Z,960.19
2023-03-29T05:30:57.489Z,960.15
2023-03-29T05:31:57.514Z,960.12
2023-03-29T05:32:57.560Z,960.10
2023-03-29T05:33:57.416Z,960.11
2023-03-29T05:34:57.410Z,960.12
2023-03-29T05:35:57.458Z,960.19
2023-03-29T05:36:57.397Z,960.17
2023-03-29T05:37:57.390Z,960.22
2023-03-29T05:38:57.362Z,960.21
2023-03-29T05:40:05.513Z,960.15
2023-03-29T05:40:57.381Z,960.19
2023-03-29T05:41:57.324Z,960.25
2023-03-29T05:42:57.358Z,960.25
2023-03-29T05:43:57.304Z,960.26
2023-03-29T05:44:57.321Z,960.30
2023-03-29T05:45:57.395Z,960.29
2023-03-29T05:46:57.286Z,960.26
2023-03-29T05:47:57.360Z,960.19
2023-03-29T05:48:57.285Z,960.29
2023-03-29T05:49:57.274Z,960.23
2023-03-29T05:50:57.312Z,960.18
2023-03-29T05:51:57.319Z,960.15
2023-03-29T05:52:57.228Z,960.16
2023-03-29T05:53:57.189Z,960.17
2023-03-29T05:54:57.204Z,960.25
2023-03-29T05:55:57.219Z,960.22
2023-03-29T05:56:57.286Z,960.22
2023-03-29T05:57:57.151Z,960.25
2023-03-29T05:58:57.203Z,960.25
2023-03-29T05:59:57.136Z,960.21
2023-03-29T06:00:57.151Z,960.20
2023-03-29T06:01:57.140Z,960.15
2023-03-29T06:03:06.507Z,960.20
2023-03-29T06:03:57.194Z,960.23
2023-03-29T06:04:57.146Z,960.16
2023-03-29T06:05:57.066Z,960.12
2023-03-29T06:06:57.058Z,960.16
2023-03-29T06:07:57.041Z,960.11
2023-03-29T06:08:57.057Z,960.21
2023-03-29T06:09:57.030Z,960.20
2023-03-29T06:10:57.016Z,960.18
2023-03-29T06:11:57.014Z,960.15
2023-03-29T06:12:57.056Z,960.20
2023-03-29T06:13:56.988Z,960.10
2023-03-29T06:14:56.970Z,960.11
2023-03-29T06:15:56.962Z,960.06
2023-03-29T06:16:56.989Z,960.17
2023-03-29T06:17:57.030Z,960.15
2023-03-29T06:18:56.937Z,960.23
2023-03-29T06:19:56.951Z,960.21
2023-03-29T06:20:56.958Z,960.22
2023-03-29T06:21:56.901Z,960.15
2023-03-29T06:22:56.923Z,960.18
2023-03-29T06:23:56.890Z,960.13
2023-03-29T06:24:56.871Z,960.15
2023-03-29T06:25:56.856Z,960.21
2023-03-29T06:26:56.909Z,960.23
2023-03-29T06:27:56.840Z,960.21
2023-03-29T06:28:56.835Z,960.24
2023-03-29T06:29:56.799Z,960.22
2023-03-29T06:30:56.876Z,960.26
2023-03-29T06:31:56.788Z,960.36
2023-03-29T06:32:56.793Z,960.33
2023-03-29T06:33:56.765Z,960.37
2023-03-29T06:34:56.753Z,960.41
2023-03-29T06:35:56.803Z,960.40
2023-03-29T06:36:56.730Z,960.44
2023-03-29T06:37:56.751Z,960.40
2023-03-29T06:38:56.696Z,960.44
2023-03-29T06:39:56.695Z,960.40
2023-03-29T06:40:56.680Z,960.44
2023-03-29T06:41:56.671Z,960.48
2023-03-29T06:42:56.680Z,960.45
2023-03-29T06:43:56.658Z,960.56
2023-03-29T06:44:56.629Z,960.52
2023-03-29T06:45:56.723Z,960.46
2023-03-29T06:46:56.604Z,960.43
2023-03-29T06:47:56.748Z,960.43
2023-03-29T06:48:56.605Z,960.47
2023-03-29T06:49:56.628Z,960.47
2023-03-29T06:50:56.581Z,960.46
2023-03-29T06:51:56.570Z,960.48
2023-03-29T06:52:56.549Z,960.46
2023-03-29T06:53:56.556Z,960.45
2023-03-29T06:54:56.646Z,960.40
2023-03-29T06:55:56.525Z,960.40
2023-03-29T06:56:56.583Z,960.42
2023-03-29T06:57:56.509Z,960.42
2023-03-29T06:58:56.672Z,960.42
2023-03-29T06:59:56.492Z,960.32
2023-03-29T07:00:56.466Z,960.35
2023-03-29T07:01:56.576Z,960.37
2023-03-29T07:02:57.130Z,960.35
2023-03-29T07:03:56.538Z,960.40
2023-03-29T07:04:56.407Z,960.38
2023-03-29T07:05:56.418Z,960.35
2023-03-29T07:06:56.394Z,960.39
2023-03-29T07:07:56.397Z,960.38
2023-03-29T07:08:56.358Z,960.34
2023-03-29T07:09:56.354Z,960.31
2023-03-29T07:10:56.351Z,960.36
2023-03-29T07:11:56.392Z,960.31
2023-03-29T07:12:56.325Z,960.31
2023-03-29T07:13:56.307Z,960.41
2023-03-29T07:14:56.304Z,960.40
2023-03-29T07:15:56.495Z,960.39
2023-03-29T07:16:56.275Z,960.42
2023-03-29T07:17:56.311Z,960.40
2023-03-29T07:18:56.255Z,960.41
2023-03-29T07:19:56.268Z,960.42
2023-03-29T07:20:56.246Z,960.42
2023-03-29T07:21:56.239Z,960.36
2023-03-29T07:22:56.201Z,960.40
2023-03-29T07:23:56.600Z,960.35
2023-03-29T07:24:56.190Z,960.39
2023-03-29T07:25:56.196Z,960.34
2023-03-29T07:27:04.041Z,960.45
2023-03-29T07:27:56.246Z,960.33
2023-03-29T07:28:56.131Z,960.43
2023-03-29T07:29:56.182Z,960.45
2023-03-29T07:30:56.120Z,960.46
2023-03-29T07:31:56.137Z,960.44
2023-03-29T07:32:56.199Z,960.41
2023-03-29T07:33:56.150Z,960.49
2023-03-29T07:34:56.066Z,960.42
2023-03-29T07:35:56.151Z,960.44
2023-03-29T07:36:56.057Z,960.48
2023-03-29T07:37:56.143Z,960.48
2023-03-29T07:38:56.484Z,960.48
2023-03-29T07:39:56.017Z,960.42
2023-03-29T07:40:56.003Z,960.54
2023-03-29T07:41:56.018Z,960.42
2023-03-29T07:42:55.976Z,960.48
2023-03-29T07:43:56.062Z,960.48
2023-03-29T07:44:58.654Z,960.48
2023-03-29T07:46:04.401Z,960.50
2023-03-29T07:48:21.427Z,960.53
2023-03-29T07:49:22.274Z,960.50
2023-03-29T07:50:21.346Z,960.53
2023-03-29T07:51:21.336Z,960.51
2023-03-29T07:52:21.294Z,960.55
2023-03-29T07:53:21.740Z,960.55
2023-03-29T07:55:06.359Z,960.58
2023-03-29T07:55:21.251Z,960.48
2023-03-29T07:56:21.246Z,960.61
2023-03-29T07:57:22.955Z,960.55
2023-03-29T08:00:56.738Z,960.57
2023-03-29T08:01:57.764Z,960.59
2023-03-29T08:02:56.688Z,960.61
2023-03-29T08:03:56.013Z,960.60
2023-03-29T08:05:05.457Z,960.60
2023-03-29T08:05:55.888Z,960.56
2023-03-29T08:06:55.892Z,960.53
2023-03-29T08:07:55.874Z,960.58
2023-03-29T08:10:35.543Z,960.56
2023-03-29T08:14:10.018Z,960.70
2023-03-29T08:15:10.267Z,960.67
2023-03-29T08:16:10.259Z,960.67
2023-03-29T08:17:10.302Z,960.60
2023-03-29T08:18:10.585Z,960.62
2023-03-29T08:19:10.220Z,960.63
2023-03-29T08:20:13.065Z,960.62
2023-03-29T08:21:10.199Z,960.63
2023-03-29T08:22:10.223Z,960.63
2023-03-29T13:29:25.536Z,959.29
2023-03-29T13:30:25.572Z,959.29
2023-03-29T13:31:25.598Z,959.21
2023-03-29T13:32:25.624Z,959.20
2023-03-29T13:33:25.527Z,959.25
2023-03-29T13:34:25.565Z,959.19
2023-03-29T13:35:25.527Z,959.24
2023-03-29T13:36:25.596Z,959.21
2023-03-29T13:37:25.758Z,959.29
2023-03-29T13:38:25.576Z,959.19
2023-03-29T13:39:25.481Z,959.14
2023-03-29T13:40:25.510Z,959.15
2023-03-29T13:41:25.694Z,959.11
2023-03-29T13:42:25.439Z,959.20
2023-03-29T13:43:25.552Z,959.16
2023-03-29T13:44:25.420Z,959.11
2023-03-29T13:45:25.424Z,959.09
2023-03-29T13:46:25.459Z,959.08
2023-03-29T13:47:25.450Z,959.14
2023-03-29T13:48:25.424Z,959.07
2023-03-29T13:49:25.352Z,959.12
2023-03-29T13:50:25.347Z,959.11
2023-03-29T13:51:25.322Z,959.05
2023-03-29T13:52:25.336Z,959.02
2023-03-29T13:53:25.335Z,959.02
2023-03-29T13:54:25.303Z,959.04
2023-03-29T13:55:25.324Z,959.03
2023-03-29T13:56:25.320Z,959.01
2023-03-29T13:57:25.469Z,959.06
2023-03-29T13:58:25.314Z,959.05
2023-03-29T13:59:25.268Z,959.03
2023-03-29T14:00:25.227Z,959.05
2023-03-29T14:01:25.257Z,958.95
2023-03-29T14:02:25.296Z,959.02
2023-03-29T14:03:25.311Z,958.98
2023-03-29T14:04:25.220Z,958.98
2023-03-29T14:05:25.179Z,958.99
2023-03-29T14:06:25.175Z,958.92
2023-03-29T14:07:25.170Z,958.90
2023-03-29T14:08:25.171Z,958.95
2023-03-29T14:09:25.131Z,958.96
2023-03-29T14:10:25.133Z,958.94
2023-03-29T14:11:25.124Z,959.04
2023-03-29T14:12:25.101Z,959.04
2023-03-29T14:13:25.196Z,959.02
2023-03-29T14:14:25.069Z,958.95
2023-03-29T14:15:25.099Z,959.04
2023-03-29T14:16:25.088Z,959.01
2023-03-29T14:17:25.056Z,959.03
2023-03-29T14:18:25.010Z,959.00
2023-03-29T14:19:25.038Z,958.96
2023-03-29T14:20:25.061Z,958.91
2023-03-29T14:21:25.259Z,958.89
2023-03-29T14:22:24.973Z,958.80
2023-03-29T14:23:25.002Z,958.82
2023-03-29T14:24:24.968Z,958.84
2023-03-29T14:25:24.960Z,958.86
2023-03-29T14:26:25.402Z,958.89
2023-03-29T14:27:25.012Z,958.91
2023-03-29T14:28:24.936Z,958.83
2023-03-29T14:29:25.579Z,958.94
2023-03-29T14:30:24.880Z,958.93
2023-03-29T14:31:25.381Z,958.89
2023-03-29T14:32:24.923Z,958.85
2023-03-29T14:33:24.872Z,958.92
2023-03-29T14:34:24.857Z,958.97
2023-03-29T14:35:24.836Z,958.98
2023-03-29T14:36:24.969Z,959.00
2023-03-29T14:37:24.906Z,958.96
2023-03-29T14:38:24.912Z,959.08
2023-03-29T14:39:24.810Z,959.02
2023-03-29T14:40:24.779Z,958.94
2023-03-29T14:41:24.763Z,958.90
2023-03-29T14:42:24.779Z,958.90
2023-03-29T14:43:24.766Z,959.00
2023-03-29T14:44:24.740Z,958.96
2023-03-29T14:45:24.807Z,958.89
2023-03-29T14:46:24.735Z,958.87
2023-03-29T14:47:24.741Z,958.88
2023-03-29T14:48:24.740Z,958.96
2023-03-29T14:49:24.704Z,958.87
2023-03-29T14:50:24.665Z,958.91
2023-03-29T14:51:24.688Z,958.87
2023-03-29T14:52:24.654Z,958.92
2023-03-29T14:53:24.667Z,958.97
2023-03-29T14:54:24.647Z,958.98
2023-03-29T14:55:24.619Z,958.93
2023-03-29T14:56:24.651Z,958.98
2023-03-29T14:57:24.643Z,958.98
2023-03-29T14:58:24.588Z,958.94
2023-03-29T14:59:24.590Z,959.00
2023-03-29T15:00:24.638Z,958.97
2023-03-29T15:01:24.563Z,958.92
2023-03-29T15:02:24.647Z,958.96
2023-03-29T15:03:24.610Z,958.93
2023-03-29T15:04:24.564Z,958.99
2023-03-29T15:05:25.656Z,958.98
2023-03-29T15:06:24.482Z,959.01
2023-03-29T15:07:24.512Z,958.98
2023-03-29T15:08:24.473Z,959.07
2023-03-29T15:09:24.521Z,959.08
2023-03-29T15:10:24.490Z,959.15
2023-03-29T15:11:24.434Z,959.07
2023-03-29T15:12:24.415Z,959.05
2023-03-29T15:13:25.660Z,959.01
2023-03-29T15:14:24.417Z,959.03
2023-03-29T15:15:24.430Z,958.97
2023-03-29T15:16:24.413Z,958.89
2023-03-29T15:17:24.357Z,958.90
2023-03-29T15:18:24.404Z,959.01
2023-03-29T15:19:24.424Z,958.96
2023-03-29T15:20:24.352Z,958.93
2023-03-29T15:21:24.352Z,959.01
2023-03-29T15:22:24.312Z,959.09
2023-03-29T15:23:24.386Z,958.92
2023-03-29T15:24:24.347Z,959.03
2023-03-29T15:25:24.277Z,959.06
2023-03-29T15:26:24.318Z,959.07
2023-03-29T15:27:24.531Z,959.17
2023-03-29T15:28:24.263Z,959.03
2023-03-29T15:29:24.248Z,959.09
2023-03-29T15:30:24.236Z,959.08
2023-03-29T15:31:25.230Z,959.16
2023-03-29T15:32:24.258Z,959.11
2023-03-29T15:33:24.325Z,959.13
2023-03-29T15:34:26.592Z,959.32
2023-03-29T15:35:24.903Z,959.16
2023-03-29T15:36:24.696Z,959.12
2023-03-29T15:37:24.261Z,959.15
2023-03-29T15:38:33.139Z,959.18
2023-03-29T15:39:24.133Z,959.09
2023-03-29T15:40:24.128Z,959.02
2023-03-29T15:41:24.096Z,959.15
2023-03-29T15:42:27.755Z,959.12
2023-03-29T15:43:24.088Z,959.11
2023-03-29T15:44:24.102Z,959.08
2023-03-29T15:45:24.046Z,959.05
2023-03-29T15:46:24.081Z,959.05
2023-03-29T15:47:24.159Z,959.02
2023-03-29T15:48:24.027Z,959.01
2023-03-29T15:49:24.116Z,959.00
2023-03-29T15:50:23.997Z,958.98
2023-03-29T15:51:24.017Z,958.98
2023-03-29T15:52:23.972Z,958.95
2023-03-29T15:53:23.990Z,958.93
2023-03-29T15:54:25.823Z,958.94
2023-03-29T15:55:24.013Z,958.91
2023-03-29T15:56:23.931Z,958.92
2023-03-29T15:57:24.064Z,958.93
2023-03-29T15:58:26.192Z,958.81
2023-03-29T15:59:23.934Z,958.91
2023-03-29T16:00:23.890Z,958.84
2023-03-29T16:01:23.982Z,958.83
2023-03-29T16:02:23.932Z,958.84
2023-03-29T16:03:33.552Z,958.87
2023-03-29T16:04:23.863Z,958.84
2023-03-29T16:05:23.849Z,958.87
2023-03-29T16:06:24.546Z,958.78
2023-03-29T16:07:23.843Z,958.80
2023-03-29T16:08:23.848Z,958.84
2023-03-29T16:09:24.136Z,958.85
2023-03-29T16:10:25.147Z,958.81
2023-03-29T16:11:24.000Z,958.80
2023-03-29T16:12:23.824Z,958.78
2023-03-29T16:13:23.741Z,958.80
2023-03-29T16:14:26.396Z,958.74
2023-03-29T16:15:26.666Z,958.71
2023-03-29T16:16:23.794Z,958.71
2023-03-29T16:17:23.817Z,958.71
2023-03-29T16:18:23.699Z,958.74
2023-03-29T16:19:23.743Z,958.74
2023-03-29T16:20:23.715Z,958.72
2023-03-29T16:21:23.658Z,958.70
2023-03-29T16:22:23.640Z,958.70
2023-03-29T16:23:23.679Z,958.74
2023-03-29T16:24:23.622Z,958.78
2023-03-29T16:25:23.642Z,958.82
2023-03-29T16:26:23.606Z,958.80
2023-03-29T16:27:23.579Z,958.82
2023-03-29T16:28:23.583Z,958.83
2023-03-29T16:29:23.587Z,958.84
2023-03-29T16:30:25.067Z,958.81
2023-03-29T16:31:23.629Z,958.85
2023-03-29T16:32:23.607Z,958.80
2023-03-29T16:33:23.556Z,958.78
2023-03-29T16:34:23.510Z,958.81
2023-03-29T16:35:23.528Z,958.78
2023-03-29T16:36:23.501Z,958.79
2023-03-29T16:37:23.479Z,958.86
2023-03-29T16:38:23.459Z,958.92
2023-03-29T16:39:23.444Z,958.87
2023-03-29T16:40:23.464Z,958.84
2023-03-29T16:41:25.605Z,958.83
2023-03-29T16:44:35.093Z,958.81
2023-03-29T16:45:32.956Z,958.83
2023-03-29T16:46:32.747Z,958.73
2023-03-29T16:47:32.810Z,958.76
2023-03-29T16:48:32.723Z,958.76
2023-03-29T16:49:32.678Z,958.77
2023-03-29T16:50:33.047Z,958.83
2023-03-29T16:51:33.344Z,958.84
2023-03-29T16:52:32.654Z,958.85
2023-03-29T16:53:32.666Z,958.87
2023-03-29T16:54:34.401Z,958.81
2023-03-29T16:55:32.620Z,958.78
2023-03-29T16:56:32.617Z,958.81
2023-03-29T16:57:32.593Z,958.79
2023-03-29T16:58:32.575Z,958.80
2023-03-29T16:59:34.998Z,958.81
2023-03-29T17:00:32.631Z,958.83
2023-03-29T17:02:29.678Z,958.75
2023-03-29T17:03:29.772Z,958.74
2023-03-29T17:04:29.789Z,958.69
2023-03-29T17:09:21.251Z,958.62
2023-03-29T17:10:21.009Z,958.55
2023-03-29T17:12:39.594Z,958.55
2023-03-29T17:13:39.582Z,958.58
2023-03-29T17:14:39.571Z,958.59
2023-03-29T17:15:40.032Z,958.56
2023-03-29T17:16:39.607Z,958.58
2023-03-29T17:17:39.532Z,958.58
2023-03-29T17:18:39.547Z,958.55
2023-03-29T17:19:39.502Z,958.57
2023-03-29T17:20:39.506Z,958.51
2023-03-29T17:21:39.515Z,958.50
2023-03-29T17:22:39.480Z,958.50
2023-03-29T17:23:39.480Z,958.44
2023-03-29T17:24:39.471Z,958.45
2023-03-29T17:25:39.470Z,958.48
2023-03-29T17:26:39.460Z,958.48
2023-03-29T17:27:39.430Z,958.50
2023-03-29T17:28:39.435Z,958.49
2023-03-29T17:29:39.421Z,958.41
2023-03-29T17:30:39.395Z,958.50
2023-03-29T17:31:39.457Z,958.50
2023-03-29T17:32:39.421Z,958.50
2023-03-29T17:33:39.347Z,958.52
2023-03-29T17:34:39.346Z,958.45
2023-03-29T17:35:39.355Z,958.52
2023-03-29T17:36:39.346Z,958.52
2023-03-29T17:37:39.310Z,958.57
2023-03-29T17:38:39.316Z,958.59
2023-03-29T17:39:39.277Z,958.60
2023-03-29T17:40:39.288Z,958.58
2023-03-29T17:41:39.309Z,958.58
2023-03-29T17:42:39.249Z,958.63
2023-03-29T17:43:39.260Z,958.54
2023-03-29T17:44:39.255Z,958.50
2023-03-29T17:45:39.219Z,958.50
2023-03-29T17:46:39.256Z,958.55
2023-03-29T17:47:39.277Z,958.49
2023-03-29T17:48:39.195Z,958.58
2023-03-29T17:49:39.185Z,958.55
2023-03-29T17:50:39.185Z,958.54